Time;durP1;ratioP1;P1;durP2;ratioP2;P2;SDS_P1;SDS_P2;PMS_P1;PMS_P2;Temp;Humidity;BMP_temperature;BMP_pressure;BME280_temperature;BME280_humidity;BME280_pressure;Samples;Min_cycle;Max_cycle;Signal;HPM_P1;HPM_P2
2022/08/21 00:00:53;;;;;;;;;;;24.50;60.50;;;;;;5049146;28;82026;-39
2022/08/21 00:03:18;;;;;;;;;;;24.40;60.50;;;;;;5046164;27;83205;-39
2022/08/21 00:05:45;;;;;;;;;;;24.40;60.40;;;;;;5045756;27;82952;-39
2022/08/21 00:08:11;;;;;;;;;;;24.40;60.50;;;;;;5046598;28;83518;-39
2022/08/21 00:10:37;;;;;;;;;;;24.40;60.50;;;;;;5046184;27;82944;-39
2022/08/21 00:13:04;;;;;;;;;;;24.30;60.60;;;;;;5045976;27;81807;-39
2022/08/21 00:15:31;;;;;;;;;;;24.30;60.50;;;;;;5046175;28;82261;-39
2022/08/21 00:17:57;;;;;;;;;;;24.30;60.50;;;;;;5045438;27;82914;-39
2022/08/21 00:20:23;;;;;;;;;;;24.30;60.60;;;;;;5046063;27;82676;-39
2022/08/21 00:22:49;;;;;;;;;;;24.30;60.70;;;;;;5048630;27;82564;-39
2022/08/21 00:25:15;;;;;;;;;;;24.30;60.60;;;;;;5046135;27;81949;-39
2022/08/21 00:27:42;;;;;;;;;;;24.30;60.70;;;;;;5045945;27;82440;-39
2022/08/21 00:30:08;;;;;;;;;;;24.20;60.70;;;;;;5045286;27;84146;-39
2022/08/21 00:32:35;;;;;;;;;;;24.30;60.70;;;;;;5045522;28;82149;-39
2022/08/21 00:35:01;;;;;;;;;;;24.20;60.60;;;;;;5046203;27;81812;-39
2022/08/21 00:37:26;;;;;;;;;;;24.20;60.70;;;;;;5045779;28;82727;-39
2022/08/21 00:39:53;;;;;;;;;;;24.20;60.70;;;;;;5046082;28;82014;-39
2022/08/21 00:42:19;;;;;;;;;;;24.20;60.70;;;;;;5045963;27;83386;-39
2022/08/21 00:44:46;;;;;;;;;;;24.20;60.70;;;;;;5048293;28;84286;-39
2022/08/21 00:47:12;;;;;;;;;;;24.20;60.80;;;;;;5046256;27;82396;-40
2022/08/21 00:49:38;;;;;;;;;;;24.10;60.70;;;;;;5045110;27;84501;-39
2022/08/21 00:52:05;;;;;;;;;;;24.10;60.70;;;;;;5045754;28;81946;-39
2022/08/21 00:54:31;;;;;;;;;;;24.10;60.80;;;;;;5045299;28;82858;-39
2022/08/21 00:57:00;;;;;;;;;;;24.10;60.80;;;;;;5045326;27;84096;-39
2022/08/21 00:59:26;;;;;;;;;;;24.10;60.80;;;;;;5045515;27;81913;-39
2022/08/21 01:01:52;;;;;;;;;;;24.10;61.00;;;;;;5045693;27;82755;-39
2022/08/21 01:04:18;;;;;;;;;;;24.00;60.90;;;;;;5045338;27;84791;-39
2022/08/21 01:06:44;;;;;;;;;;;24.00;60.90;;;;;;5048186;27;81924;-39
2022/08/21 01:09:10;;;;;;;;;;;24.00;60.90;;;;;;5045661;28;83193;-39
2022/08/21 01:11:36;;;;;;;;;;;24.00;60.90;;;;;;5045704;28;81648;-39
2022/08/21 01:14:01;;;;;;;;;;;24.00;60.90;;;;;;5045653;27;82030;-39
2022/08/21 01:16:28;;;;;;;;;;;24.00;61.00;;;;;;5045433;28;82950;-39
2022/08/21 01:18:53;;;;;;;;;;;24.00;61.00;;;;;;5045099;27;82911;-39
2022/08/21 01:21:21;;;;;;;;;;;24.00;61.00;;;;;;5044766;28;83164;-39
2022/08/21 01:23:49;;;;;;;;;;;23.90;60.90;;;;;;5045151;28;82134;-39
2022/08/21 01:26:16;;;;;;;;;;;23.90;60.90;;;;;;5047993;27;81996;-39
2022/08/21 01:28:54;;;;;;;;;;;23.90;61.00;;;;;;5045252;28;83015;-39
2022/08/21 01:31:21;;;;;;;;;;;23.90;61.00;;;;;;5048900;28;81981;-39
2022/08/21 01:33:46;;;;;;;;;;;23.90;61.10;;;;;;5048873;27;82018;-39
2022/08/21 01:36:12;;;;;;;;;;;23.90;61.00;;;;;;5049133;28;82222;-39
2022/08/21 01:38:37;;;;;;;;;;;23.90;61.00;;;;;;5048316;28;82019;-39
2022/08/21 01:41:03;;;;;;;;;;;23.80;61.00;;;;;;5048432;27;84068;-39
2022/08/21 01:43:29;;;;;;;;;;;23.80;61.00;;;;;;5047415;28;85302;-39
2022/08/21 01:45:54;;;;;;;;;;;23.80;61.00;;;;;;5048526;28;82506;-39
2022/08/21 01:48:20;;;;;;;;;;;23.80;61.00;;;;;;5051141;28;82482;-39
2022/08/21 01:50:45;;;;;;;;;;;23.80;61.10;;;;;;5048229;28;82037;-39
2022/08/21 01:53:11;;;;;;;;;;;23.80;61.10;;;;;;5048053;28;82412;-39
2022/08/21 01:55:36;;;;;;;;;;;23.70;61.00;;;;;;5048250;28;83022;-39
2022/08/21 01:58:02;;;;;;;;;;;23.70;61.10;;;;;;5048277;28;82004;-39
2022/08/21 02:00:27;;;;;;;;;;;23.70;61.10;;;;;;5049074;28;81914;-39
2022/08/21 02:02:53;;;;;;;;;;;23.70;61.20;;;;;;5048120;27;82898;-39
2022/08/21 02:05:19;;;;;;;;;;;23.70;61.20;;;;;;5048152;27;82250;-39
2022/08/21 02:07:47;;;;;;;;;;;23.70;61.10;;;;;;5047608;27;82939;-39
2022/08/21 02:10:13;;;;;;;;;;;23.70;61.20;;;;;;5050631;28;83073;-39
2022/08/21 02:12:39;;;;;;;;;;;23.60;61.80;;;;;;5048174;27;82524;-39
2022/08/21 02:15:05;;;;;;;;;;;23.60;61.20;;;;;;5047984;28;83234;-39
2022/08/21 02:18:00;;;;;;;;;;;23.60;61.20;;;;;;5047832;28;81783;-39
2022/08/21 02:20:38;;;;;;;;;;;23.60;61.20;;;;;;5042830;27;82244;-39
2022/08/21 02:23:03;;;;;;;;;;;23.60;61.20;;;;;;5047359;27;84178;-39
2022/08/21 02:25:30;;;;;;;;;;;23.60;61.20;;;;;;5048256;27;81335;-39
2022/08/21 02:27:55;;;;;;;;;;;23.60;61.30;;;;;;5048064;28;81837;-39
2022/08/21 02:30:23;;;;;;;;;;;23.60;61.30;;;;;;5047773;27;83073;-39
2022/08/21 02:32:49;;;;;;;;;;;23.50;61.30;;;;;;5049812;27;83012;-39
2022/08/21 02:35:15;;;;;;;;;;;23.60;61.30;;;;;;5047337;27;82272;-39
2022/08/21 02:37:51;;;;;;;;;;;23.50;61.30;;;;;;5047710;27;81928;-39
2022/08/21 02:40:18;;;;;;;;;;;23.50;61.30;;;;;;5047756;27;82431;-39
2022/08/21 02:42:44;;;;;;;;;;;23.50;61.30;;;;;;5047312;27;82837;-39
2022/08/21 02:45:11;;;;;;;;;;;23.50;61.30;;;;;;5047452;27;81969;-39
2022/08/21 02:47:36;;;;;;;;;;;23.50;61.30;;;;;;5047126;27;83921;-39
2022/08/21 02:50:03;;;;;;;;;;;23.40;61.30;;;;;;5047764;27;82368;-39
2022/08/21 02:52:29;;;;;;;;;;;23.40;61.30;;;;;;5047530;27;82052;-39
2022/08/21 02:54:54;;;;;;;;;;;23.40;61.30;;;;;;5050273;28;82351;-39
2022/08/21 02:57:20;;;;;;;;;;;23.40;61.40;;;;;;5046718;28;82918;-39
2022/08/21 02:59:46;;;;;;;;;;;23.40;61.40;;;;;;5047504;28;83319;-39
2022/08/21 03:02:12;;;;;;;;;;;23.40;61.40;;;;;;5047209;28;83168;-39
2022/08/21 03:04:38;;;;;;;;;;;23.40;61.40;;;;;;5047275;27;81959;-39
2022/08/21 03:07:03;;;;;;;;;;;23.40;61.40;;;;;;5047335;27;82333;-39
2022/08/21 03:09:29;;;;;;;;;;;23.30;61.30;;;;;;5047229;27;82903;-39
2022/08/21 03:11:54;;;;;;;;;;;23.30;61.40;;;;;;5047262;27;82076;-39
2022/08/21 03:14:20;;;;;;;;;;;23.30;61.40;;;;;;5050303;28;82387;-39
2022/08/21 03:16:45;;;;;;;;;;;23.30;61.50;;;;;;5047113;28;82034;-38
2022/08/21 03:19:11;;;;;;;;;;;23.30;61.40;;;;;;5046746;27;82925;-39
2022/08/21 03:21:36;;;;;;;;;;;23.30;61.40;;;;;;5045958;28;84008;-39
2022/08/21 03:24:02;;;;;;;;;;;23.30;61.50;;;;;;5046907;28;82064;-38
2022/08/21 03:26:28;;;;;;;;;;;23.30;61.60;;;;;;5046961;28;82377;-38
2022/08/21 03:28:53;;;;;;;;;;;23.30;61.50;;;;;;5046460;27;84304;-38
2022/08/21 03:31:19;;;;;;;;;;;23.20;61.40;;;;;;5047187;28;82193;-38
2022/08/21 03:33:44;;;;;;;;;;;23.20;61.50;;;;;;5046295;27;83901;-39
2022/08/21 03:36:11;;;;;;;;;;;23.20;62.10;;;;;;5049491;28;83095;-39
2022/08/21 03:38:37;;;;;;;;;;;23.20;61.50;;;;;;5047238;27;82404;-38
2022/08/21 03:41:03;;;;;;;;;;;23.20;61.50;;;;;;5046552;28;83116;-39
2022/08/21 03:43:29;;;;;;;;;;;23.10;61.40;;;;;;5046597;28;81944;-38
2022/08/21 03:45:55;;;;;;;;;;;23.10;61.40;;;;;;5046485;27;83015;-39
2022/08/21 03:48:21;;;;;;;;;;;23.10;61.50;;;;;;5045867;27;84275;-38
2022/08/21 03:50:49;;;;;;;;;;;23.10;61.60;;;;;;5046550;27;82556;-39
2022/08/21 03:53:15;;;;;;;;;;;23.10;61.50;;;;;;5046077;28;82671;-38
2022/08/21 03:55:40;;;;;;;;;;;23.10;61.60;;;;;;5046375;27;82209;-38
2022/08/21 03:58:06;;;;;;;;;;;23.10;61.60;;;;;;5049313;27;82022;-38
2022/08/21 04:00:32;;;;;;;;;;;23.10;61.60;;;;;;5046370;28;83137;-38
2022/08/21 04:02:57;;;;;;;;;;;23.10;61.60;;;;;;5046719;28;82463;-39
2022/08/21 04:05:29;;;;;;;;;;;23.00;61.40;;;;;;5046300;27;82051;-39
2022/08/21 04:08:02;;;;;;;;;;;23.00;61.60;;;;;;5046295;27;82783;-39
2022/08/21 04:10:30;;;;;;;;;;;23.00;61.60;;;;;;5045394;27;82979;-38
2022/08/21 04:12:55;;;;;;;;;;;23.00;61.60;;;;;;5045987;27;84761;-38
2022/08/21 04:15:22;;;;;;;;;;;23.00;61.60;;;;;;5045768;28;82837;-38
2022/08/21 04:17:48;;;;;;;;;;;23.00;61.60;;;;;;5046068;27;81764;-38
2022/08/21 04:20:14;;;;;;;;;;;22.90;61.60;;;;;;5049056;28;82193;-38
2022/08/21 04:22:39;;;;;;;;;;;22.90;61.60;;;;;;5045756;28;82019;-38
2022/08/21 04:25:06;;;;;;;;;;;22.90;61.60;;;;;;5046425;28;82408;-38
2022/08/21 04:27:51;;;;;;;;;;;22.90;61.70;;;;;;5046161;27;82799;-38
2022/08/21 04:30:16;;;;;;;;;;;22.90;61.70;;;;;;5045854;27;82095;-38
2022/08/21 04:32:43;;;;;;;;;;;22.90;61.60;;;;;;5044408;28;85505;-38
2022/08/21 04:35:10;;;;;;;;;;;22.90;61.60;;;;;;5044978;27;85087;-39
2022/08/21 04:37:36;;;;;;;;;;;22.90;61.60;;;;;;5046212;27;81992;-39
2022/08/21 04:40:02;;;;;;;;;;;22.80;61.70;;;;;;5046014;28;82240;-38
2022/08/21 04:42:28;;;;;;;;;;;22.80;61.60;;;;;;5048084;28;84370;-38
2022/08/21 04:44:54;;;;;;;;;;;22.80;61.70;;;;;;5045836;28;82545;-38
2022/08/21 04:47:20;;;;;;;;;;;22.80;61.80;;;;;;5045687;27;83603;-38
2022/08/21 04:49:45;;;;;;;;;;;22.80;61.80;;;;;;5045820;27;81958;-38
2022/08/21 04:52:13;;;;;;;;;;;22.80;61.80;;;;;;5046293;27;81268;-38
2022/08/21 04:54:39;;;;;;;;;;;22.80;61.80;;;;;;5045697;28;82870;-38
2022/08/21 04:57:07;;;;;;;;;;;22.80;61.90;;;;;;5045810;27;81922;-38
2022/08/21 04:59:36;;;;;;;;;;;22.70;61.70;;;;;;5044626;27;83797;-39
2022/08/21 05:02:03;;;;;;;;;;;22.80;61.80;;;;;;5045509;27;82240;-38
2022/08/21 05:04:30;;;;;;;;;;;22.70;61.70;;;;;;5049510;27;81912;-38
2022/08/21 05:06:57;;;;;;;;;;;22.70;61.80;;;;;;5048888;27;83109;-39
2022/08/21 05:09:23;;;;;;;;;;;22.70;61.80;;;;;;5049232;27;81812;-38
2022/08/21 05:11:51;;;;;;;;;;;22.70;61.80;;;;;;5049072;27;82424;-38
2022/08/21 05:14:17;;;;;;;;;;;22.70;61.80;;;;;;5048890;27;83523;-38
2022/08/21 05:16:43;;;;;;;;;;;22.70;61.80;;;;;;5049386;27;81313;-38
2022/08/21 05:19:09;;;;;;;;;;;22.70;61.90;;;;;;5048944;28;83059;-38
2022/08/21 05:21:35;;;;;;;;;;;22.70;61.90;;;;;;5048531;27;82512;-38
2022/08/21 05:24:01;;;;;;;;;;;22.70;61.80;;;;;;5051199;27;83803;-38
2022/08/21 05:26:27;;;;;;;;;;;22.60;61.80;;;;;;5048605;27;83288;-38
2022/08/21 05:28:52;;;;;;;;;;;22.60;61.90;;;;;;5048665;28;82077;-38
2022/08/21 05:31:18;;;;;;;;;;;22.60;61.80;;;;;;5048815;28;82350;-38
2022/08/21 05:33:43;;;;;;;;;;;22.60;62.00;;;;;;5048584;28;82985;-38
2022/08/21 05:36:09;;;;;;;;;;;22.60;62.00;;;;;;5048564;28;81916;-38
2022/08/21 05:38:34;;;;;;;;;;;22.60;62.00;;;;;;5048647;27;82318;-38
2022/08/21 05:41:00;;;;;;;;;;;22.60;62.00;;;;;;5048820;28;82274;-38
2022/08/21 05:43:25;;;;;;;;;;;22.60;62.00;;;;;;5048606;28;82112;-38
2022/08/21 05:45:51;;;;;;;;;;;22.60;61.90;;;;;;5051201;28;82394;-38
2022/08/21 05:48:18;;;;;;;;;;;22.60;62.00;;;;;;5048023;28;82979;-38
2022/08/21 05:50:44;;;;;;;;;;;22.60;62.00;;;;;;5048223;28;83301;-38
2022/08/21 05:53:10;;;;;;;;;;;22.50;62.00;;;;;;5048344;27;82944;-38
2022/08/21 05:55:36;;;;;;;;;;;22.60;62.10;;;;;;5048352;27;81938;-38
2022/08/21 05:58:02;;;;;;;;;;;22.60;62.10;;;;;;5048534;28;82129;-38
2022/08/21 06:00:28;;;;;;;;;;;22.50;62.10;;;;;;5047970;27;84443;-38
2022/08/21 06:02:53;;;;;;;;;;;22.50;62.10;;;;;;5048310;27;82356;-38
2022/08/21 06:05:19;;;;;;;;;;;22.50;62.10;;;;;;5048826;27;81832;-38
2022/08/21 06:07:44;;;;;;;;;;;22.50;62.10;;;;;;5050904;27;82892;-38
2022/08/21 06:10:10;;;;;;;;;;;22.50;62.10;;;;;;5048271;28;82501;-38
2022/08/21 06:12:36;;;;;;;;;;;22.50;62.00;;;;;;5046894;27;85153;-38
2022/08/21 06:15:02;;;;;;;;;;;22.50;62.10;;;;;;5047731;27;82117;-38
2022/08/21 06:17:28;;;;;;;;;;;22.50;61.90;;;;;;5047981;27;84425;-38
2022/08/21 06:19:54;;;;;;;;;;;22.50;62.10;;;;;;5047850;27;82749;-38
2022/08/21 06:22:19;;;;;;;;;;;22.50;62.10;;;;;;5048155;27;83271;-38
2022/08/21 06:24:45;;;;;;;;;;;22.50;62.00;;;;;;5048035;27;82579;-38
2022/08/21 06:27:11;;;;;;;;;;;22.50;62.10;;;;;;5047450;27;83467;-38
2022/08/21 06:29:37;;;;;;;;;;;22.50;62.10;;;;;;5051100;28;81257;-38
2022/08/21 06:32:03;;;;;;;;;;;22.50;62.10;;;;;;5047675;27;82802;-38
2022/08/21 06:34:29;;;;;;;;;;;22.50;62.00;;;;;;5047968;27;82112;-38
2022/08/21 06:36:54;;;;;;;;;;;22.50;61.90;;;;;;5047386;28;82941;-38
2022/08/21 06:39:20;;;;;;;;;;;22.50;61.90;;;;;;5047814;28;83176;-38
2022/08/21 06:41:45;;;;;;;;;;;22.50;61.90;;;;;;5047803;28;82044;-38
2022/08/21 06:44:11;;;;;;;;;;;22.60;61.90;;;;;;5047799;27;82235;-38
2022/08/21 06:46:37;;;;;;;;;;;22.60;61.90;;;;;;5047475;28;83172;-38
2022/08/21 06:49:03;;;;;;;;;;;22.50;61.90;;;;;;5046046;28;82062;-38
2022/08/21 06:51:28;;;;;;;;;;;22.50;62.10;;;;;;5049962;27;83985;-38
2022/08/21 06:53:54;;;;;;;;;;;22.50;62.10;;;;;;5048007;27;81439;-38
2022/08/21 06:56:19;;;;;;;;;;;22.50;62.20;;;;;;5047566;27;82010;-38
2022/08/21 06:58:45;;;;;;;;;;;22.50;62.20;;;;;;5047317;27;82985;-38
2022/08/21 07:01:11;;;;;;;;;;;22.50;62.20;;;;;;5046751;28;83006;-38
2022/08/21 07:03:38;;;;;;;;;;;22.40;62.20;;;;;;5047059;27;83456;-38
2022/08/21 07:06:07;;;;;;;;;;;22.50;62.20;;;;;;5047182;27;82171;-38
2022/08/21 07:08:33;;;;;;;;;;;22.50;62.20;;;;;;5047263;27;81890;-38
2022/08/21 07:11:01;;;;;;;;;;;22.50;62.20;;;;;;5047152;27;82355;-38
2022/08/21 07:13:26;;;;;;;;;;;22.50;62.20;;;;;;5049678;27;83107;-38
2022/08/21 07:15:52;;;;;;;;;;;22.50;62.30;;;;;;5047180;28;82569;-38
2022/08/21 07:18:17;;;;;;;;;;;22.50;62.20;;;;;;5047473;28;81354;-38
2022/08/21 07:20:43;;;;;;;;;;;22.50;62.30;;;;;;5047122;28;82050;-38
2022/08/21 07:23:11;;;;;;;;;;;22.50;62.20;;;;;;5046580;28;82416;-38
2022/08/21 07:25:37;;;;;;;;;;;22.50;62.20;;;;;;5045885;28;85245;-38
2022/08/21 07:28:03;;;;;;;;;;;22.50;62.10;;;;;;5046223;27;81933;-38
2022/08/21 07:30:29;;;;;;;;;;;22.50;62.20;;;;;;5047063;27;82436;-38
2022/08/21 07:32:55;;;;;;;;;;;22.50;62.20;;;;;;5049330;27;83133;-38
2022/08/21 07:35:21;;;;;;;;;;;22.50;62.30;;;;;;5046894;27;82313;-38
2022/08/21 07:37:46;;;;;;;;;;;22.50;62.30;;;;;;5046489;28;83129;-38
2022/08/21 07:40:12;;;;;;;;;;;22.50;62.20;;;;;;5046452;27;82284;-38
2022/08/21 07:42:41;;;;;;;;;;;22.50;62.30;;;;;;5045572;28;86036;-38
2022/08/21 07:45:08;;;;;;;;;;;22.50;62.50;;;;;;5046439;27;84434;-38
2022/08/21 07:47:33;;;;;;;;;;;22.50;62.20;;;;;;5046438;28;81979;-38
2022/08/21 07:49:59;;;;;;;;;;;22.50;62.30;;;;;;5045881;28;82910;-38
2022/08/21 07:52:24;;;;;;;;;;;22.50;62.40;;;;;;5046558;28;83080;-38
2022/08/21 07:54:50;;;;;;;;;;;22.40;62.30;;;;;;5049254;28;82490;-38
2022/08/21 07:57:16;;;;;;;;;;;22.40;62.30;;;;;;5046128;27;83616;-38
2022/08/21 07:59:41;;;;;;;;;;;22.40;62.30;;;;;;5046438;27;81928;-38
2022/08/21 08:02:07;;;;;;;;;;;22.40;62.30;;;;;;5046669;28;82638;-38
2022/08/21 08:04:33;;;;;;;;;;;22.40;62.30;;;;;;5045968;27;84053;-38
2022/08/21 08:06:58;;;;;;;;;;;22.40;62.30;;;;;;5046731;27;81099;-38
2022/08/21 08:09:24;;;;;;;;;;;22.40;62.40;;;;;;5046448;27;81984;-37
2022/08/21 08:11:49;;;;;;;;;;;22.40;62.30;;;;;;5046073;28;83292;-38
2022/08/21 08:14:15;;;;;;;;;;;22.40;62.40;;;;;;5045961;28;83672;-38
2022/08/21 08:16:41;;;;;;;;;;;22.40;62.50;;;;;;5048544;27;84845;-38
2022/08/21 08:19:06;;;;;;;;;;;22.40;62.40;;;;;;5046337;28;81671;-38
2022/08/21 08:21:33;;;;;;;;;;;22.40;62.40;;;;;;5045844;27;82554;-38
2022/08/21 08:23:59;;;;;;;;;;;22.40;62.40;;;;;;5045587;27;84248;-38
2022/08/21 08:26:24;;;;;;;;;;;22.40;62.50;;;;;;5045618;28;82321;-38
2022/08/21 08:28:50;;;;;;;;;;;22.40;62.40;;;;;;5046208;28;82118;-38
2022/08/21 08:31:15;;;;;;;;;;;22.40;62.30;;;;;;5046423;28;82376;-38
2022/08/21 08:33:41;;;;;;;;;;;22.40;62.40;;;;;;5046189;28;82194;-38
2022/08/21 08:36:12;;;;;;;;;;;22.40;62.40;;;;;;5046132;27;82396;-38
2022/08/21 08:38:37;;;;;;;;;;;22.40;63.10;;;;;;5049281;27;83001;-38
2022/08/21 08:41:03;;;;;;;;;;;22.40;62.40;;;;;;5049651;28;83530;-38
2022/08/21 08:43:29;;;;;;;;;;;22.40;62.50;;;;;;5049100;27;84293;-37
2022/08/21 08:45:57;;;;;;;;;;;22.40;62.50;;;;;;5049682;27;81959;-37
2022/08/21 08:48:31;;;;;;;;;;;22.40;62.50;;;;;;5049406;27;82219;-37
2022/08/21 08:50:59;;;;;;;;;;;22.40;62.50;;;;;;5048977;28;83342;-38
2022/08/21 08:53:28;;;;;;;;;;;22.40;62.60;;;;;;5049111;27;81945;-37
2022/08/21 08:55:55;;;;;;;;;;;22.40;62.50;;;;;;5050134;27;83889;-37
2022/08/21 08:58:30;;;;;;;;;;;22.50;62.50;;;;;;5048999;27;84640;-37
2022/08/21 09:00:56;;;;;;;;;;;22.40;62.60;;;;;;5051938;27;81944;-37
2022/08/21 09:03:22;;;;;;;;;;;22.40;62.70;;;;;;5048337;27;84266;-38
2022/08/21 09:05:54;;;;;;;;;;;22.40;62.70;;;;;;5049148;27;82065;-37
2022/08/21 09:08:38;;;;;;;;;;;22.40;62.50;;;;;;5049215;27;83170;-37
2022/08/21 09:11:07;;;;;;;;;;;22.40;62.40;;;;;;5048983;27;82970;-37
2022/08/21 09:13:43;;;;;;;;;;;22.40;62.50;;;;;;5049060;27;81924;-37
2022/08/21 09:16:11;;;;;;;;;;;22.40;62.50;;;;;;5049220;28;82441;-37
2022/08/21 09:18:43;;;;;;;;;;;22.50;62.50;;;;;;5048800;28;82784;-37
2022/08/21 09:21:23;;;;;;;;;;;22.50;62.50;;;;;;5049094;27;81291;-37
2022/08/21 09:23:52;;;;;;;;;;;22.50;62.30;;;;;;5051579;27;82007;-37
2022/08/21 09:26:19;;;;;;;;;;;22.50;62.40;;;;;;5048836;27;81970;-37
2022/08/21 09:28:46;;;;;;;;;;;22.50;62.50;;;;;;5048062;28;82897;-37
2022/08/21 09:31:15;;;;;;;;;;;22.50;62.40;;;;;;5048266;27;84733;-37
2022/08/21 09:33:41;;;;;;;;;;;22.50;62.30;;;;;;5048648;28;82015;-37
2022/08/21 09:36:06;;;;;;;;;;;22.50;62.40;;;;;;5048713;27;83704;-37
2022/08/21 09:38:34;;;;;;;;;;;22.50;62.40;;;;;;5048559;27;82970;-37
2022/08/21 09:41:09;;;;;;;;;;;22.50;62.40;;;;;;5048824;28;82565;-37
2022/08/21 09:43:35;;;;;;;;;;;22.50;62.40;;;;;;5050877;27;84207;-37
2022/08/21 09:46:03;;;;;;;;;;;22.50;62.30;;;;;;5048731;28;81297;-37
2022/08/21 09:48:29;;;;;;;;;;;22.50;62.30;;;;;;5048592;28;82026;-37
2022/08/21 09:51:05;;;;;;;;;;;22.50;62.30;;;;;;5047204;27;84684;-37
2022/08/21 09:53:31;;;;;;;;;;;22.50;62.20;;;;;;5047878;27;82843;-38
2022/08/21 09:58:46;;;;;;;;;;;22.60;62.20;;;;;;5048261;28;82340;-38
2022/08/21 10:01:13;;;;;;;;;;;22.60;62.00;;;;;;5048537;27;82224;-37
2022/08/21 10:03:39;;;;;;;;;;;22.60;62.10;;;;;;5048260;28;82626;-37
2022/08/21 10:06:08;;;;;;;;;;;22.60;62.00;;;;;;5050124;27;82874;-37
2022/08/21 10:08:35;;;;;;;;;;;22.70;63.90;;;;;;5048137;27;83791;-37
2022/08/21 10:11:11;;;;;;;;;;;22.70;64.00;;;;;;5048266;28;83776;-41
2022/08/21 10:13:42;;;;;;;;;;;22.80;63.80;;;;;;5048238;28;81857;-38
2022/08/21 10:16:08;;;;;;;;;;;22.80;65.60;;;;;;5048196;27;82393;-39
2022/08/21 10:18:33;;;;;;;;;;;22.90;68.50;;;;;;5047320;28;83148;-38
2022/08/21 10:21:16;;;;;;;;;;;22.90;68.10;;;;;;5047795;28;82182;-40
2022/08/21 10:23:48;;;;;;;;;;;23.00;66.30;;;;;;5048198;28;82515;-40
2022/08/21 10:26:22;;;;;;;;;;;23.00;68.00;;;;;;5047856;28;82949;-38
2022/08/21 10:29:03;;;;;;;;;;;23.10;67.20;;;;;;5049399;28;82022;-37
2022/08/21 10:31:31;;;;;;;;;;;23.10;67.30;;;;;;5044506;28;84623;-48
2022/08/21 10:34:06;;;;;;;;;;;23.10;67.30;;;;;;5046484;28;82442;-39
2022/08/21 10:36:56;;;;;;;;;;;23.20;69.20;;;;;;5047056;28;81640;-38
2022/08/21 10:39:33;;;;;;;;;;;23.20;67.30;;;;;;5045833;28;83042;-38
2022/08/21 10:42:20;;;;;;;;;;;23.10;68.60;;;;;;5045943;28;82105;-37
2022/08/21 10:44:58;;;;;;;;;;;23.20;68.30;;;;;;5043416;28;83535;-37
2022/08/21 10:47:29;;;;;;;;;;;23.20;69.00;;;;;;5043518;28;82821;-38
2022/08/21 10:50:01;;;;;;;;;;;23.20;67.80;;;;;;5046190;28;82470;-38
2022/08/21 10:52:27;;;;;;;;;;;23.20;67.90;;;;;;5046730;28;81984;-39
2022/08/21 10:55:10;;;;;;;;;;;23.20;68.80;;;;;;5047031;28;82134;-40
2022/08/21 10:57:38;;;;;;;;;;;23.20;68.90;;;;;;5047557;28;82558;-39
2022/08/21 11:00:13;;;;;;;;;;;23.30;69.40;;;;;;5047477;28;83201;-38
2022/08/21 11:02:42;;;;;;;;;;;23.40;69.30;;;;;;5046045;27;81423;-40
2022/08/21 11:05:14;;;;;;;;;;;23.50;69.20;;;;;;5047061;27;81985;-41
2022/08/21 11:07:48;;;;;;;;;;;23.60;69.10;;;;;;5047093;28;83045;-39
2022/08/21 11:10:36;;;;;;;;;;;23.60;68.60;;;;;;5046511;28;82983;-41
2022/08/21 11:13:07;;;;;;;;;;;23.60;68.30;;;;;;5039778;28;83917;-39
2022/08/21 11:15:38;;;;;;;;;;;23.60;66.90;;;;;;5047774;28;84546;-40
2022/08/21 11:18:18;;;;;;;;;;;23.70;65.80;;;;;;5045399;28;82540;-40
2022/08/21 11:20:48;;;;;;;;;;;23.70;64.30;;;;;;5044971;28;83008;-40
2022/08/21 11:23:14;;;;;;;;;;;23.60;64.10;;;;;;5043191;28;82053;-40
2022/08/21 11:25:41;;;;;;;;;;;23.60;64.00;;;;;;5045568;28;82420;-40
2022/08/21 11:28:14;;;;;;;;;;;23.50;63.80;;;;;;5045977;28;81767;-43
2022/08/21 11:30:45;;;;;;;;;;;23.50;63.30;;;;;;5046545;28;82023;-39
2022/08/21 11:33:11;;;;;;;;;;;23.50;63.80;;;;;;5047074;28;82404;-39
2022/08/21 11:36:03;;;;;;;;;;;23.60;63.50;;;;;;5046023;28;83192;-41
2022/08/21 11:38:36;;;;;;;;;;;23.60;63.70;;;;;;5049879;28;82002;-41
2022/08/21 11:41:04;;;;;;;;;;;23.70;63.20;;;;;;5046401;28;82882;-41
2022/08/21 11:43:32;;;;;;;;;;;23.70;63.80;;;;;;5046759;28;82041;-41
2022/08/21 11:46:08;;;;;;;;;;;23.70;65.00;;;;;;5045415;28;82367;-38
2022/08/21 11:48:34;;;;;;;;;;;23.70;65.30;;;;;;5046040;28;82975;-39
2022/08/21 11:51:04;;;;;;;;;;;23.70;65.80;;;;;;5045774;28;81914;-39
2022/08/21 11:53:37;;;;;;;;;;;23.60;66.30;;;;;;5046770;28;82475;-40
2022/08/21 11:56:06;;;;;;;;;;;23.70;66.10;;;;;;5046467;28;82249;-39
2022/08/21 11:58:34;;;;;;;;;;;23.70;65.80;;;;;;5049365;28;82040;-38
2022/08/21 12:01:03;;;;;;;;;;;23.70;65.30;;;;;;5045460;28;83976;-40
2022/08/21 12:03:28;;;;;;;;;;;23.70;65.30;;;;;;5045541;28;81923;-40
2022/08/21 12:06:11;;;;;;;;;;;23.80;66.10;;;;;;5045366;27;83833;-40
2022/08/21 12:08:38;;;;;;;;;;;23.80;65.50;;;;;;5044697;28;84476;-39
2022/08/21 12:11:03;;;;;;;;;;;23.80;64.90;;;;;;5043029;28;82046;-39
2022/08/21 12:13:30;;;;;;;;;;;23.90;64.30;;;;;;5045740;28;82025;-38
2022/08/21 12:16:10;;;;;;;;;;;23.90;63.90;;;;;;5045786;28;83090;-39
2022/08/21 12:18:37;;;;;;;;;;;23.80;64.40;;;;;;5047030;28;81400;-40
2022/08/21 12:21:05;;;;;;;;;;;23.80;65.30;;;;;;5048272;27;83095;-47
2022/08/21 12:23:42;;;;;;;;;;;23.90;65.20;;;;;;5046136;28;81951;-41
2022/08/21 12:26:14;;;;;;;;;;;23.90;65.70;;;;;;5045556;27;82955;-40
2022/08/21 12:28:40;;;;;;;;;;;23.90;65.30;;;;;;5046058;28;83382;-41
2022/08/21 12:31:17;;;;;;;;;;;23.90;65.20;;;;;;5045212;28;83159;-41
2022/08/21 12:33:47;;;;;;;;;;;23.90;64.50;;;;;;5046068;27;82774;-45
2022/08/21 12:36:20;;;;;;;;;;;23.80;64.30;;;;;;5046119;28;83185;-41
2022/08/21 12:39:12;;;;;;;;;;;23.90;64.80;;;;;;5045962;28;82472;-40
2022/08/21 12:42:01;;;;;;;;;;;24.00;64.90;;;;;;5042606;28;83192;-42
2022/08/21 12:44:39;;;;;;;;;;;24.00;65.10;;;;;;5037116;28;82246;-39
2022/08/21 12:47:16;;;;;;;;;;;24.00;64.90;;;;;;5043461;28;81975;-41
2022/08/21 12:49:52;;;;;;;;;;;24.00;64.40;;;;;;5042008;28;82999;-39
2022/08/21 12:52:23;;;;;;;;;;;24.00;64.40;;;;;;5044627;28;83069;-40
2022/08/21 12:54:48;;;;;;;;;;;24.00;64.00;;;;;;5045156;28;84599;-39
2022/08/21 12:57:19;;;;;;;;;;;24.00;64.30;;;;;;5044879;28;84361;-39
2022/08/21 12:59:44;;;;;;;;;;;23.90;64.00;;;;;;5045775;28;82053;-39
2022/08/21 13:02:16;;;;;;;;;;;24.00;64.10;;;;;;5045745;28;82415;-41
2022/08/21 13:04:42;;;;;;;;;;;24.00;63.90;;;;;;5045189;28;83640;-41
2022/08/21 13:07:12;;;;;;;;;;;24.00;64.10;;;;;;5048376;28;82024;-44
2022/08/21 13:09:42;;;;;;;;;;;24.00;64.30;;;;;;5045825;28;82326;-39
2022/08/21 13:12:08;;;;;;;;;;;24.10;65.00;;;;;;5045522;28;82047;-39
2022/08/21 13:14:41;;;;;;;;;;;24.10;64.40;;;;;;5045551;28;82483;-41
2022/08/21 13:17:07;;;;;;;;;;;24.10;64.40;;;;;;5044333;28;84136;-39
2022/08/21 13:19:33;;;;;;;;;;;24.20;65.40;;;;;;5045150;28;82047;-41
2022/08/21 13:22:00;;;;;;;;;;;24.10;65.30;;;;;;5044747;27;83887;-39
2022/08/21 13:24:27;;;;;;;;;;;24.20;66.00;;;;;;5045228;27;83633;-39
2022/08/21 13:26:53;;;;;;;;;;;24.20;64.50;;;;;;5048433;28;82050;-37
2022/08/21 13:29:20;;;;;;;;;;;24.20;65.10;;;;;;5050858;28;82488;-37
2022/08/21 13:31:52;;;;;;;;;;;24.20;65.40;;;;;;5048386;28;82112;-37
2022/08/21 13:34:18;;;;;;;;;;;24.20;65.30;;;;;;5048839;27;83992;-37
2022/08/21 13:36:44;;;;;;;;;;;24.20;65.00;;;;;;5048193;28;82045;-37
2022/08/21 13:39:11;;;;;;;;;;;24.20;65.00;;;;;;5048584;28;81783;-41
2022/08/21 13:41:38;;;;;;;;;;;24.20;65.10;;;;;;5047571;27;82894;-39
2022/08/21 13:44:26;;;;;;;;;;;24.20;66.20;;;;;;5047858;28;82940;-38
2022/08/21 13:46:52;;;;;;;;;;;24.10;66.00;;;;;;5048164;28;81967;-37
2022/08/21 13:49:20;;;;;;;;;;;24.10;65.70;;;;;;5050589;27;83943;-38
2022/08/21 13:51:46;;;;;;;;;;;24.10;67.20;;;;;;5047990;28;83245;-38
2022/08/21 13:54:27;;;;;;;;;;;24.10;66.20;;;;;;5048137;27;83591;-38
2022/08/21 13:56:53;;;;;;;;;;;24.10;66.30;;;;;;5047807;28;82821;-39
2022/08/21 13:59:29;;;;;;;;;;;24.10;67.50;;;;;;5047548;28;81236;-39
2022/08/21 14:02:01;;;;;;;;;;;24.10;66.90;;;;;;5047752;28;83043;-39
2022/08/21 14:04:43;;;;;;;;;;;24.20;67.20;;;;;;5047635;28;84837;-38
2022/08/21 14:07:17;;;;;;;;;;;24.20;67.90;;;;;;5047246;28;82859;-41
2022/08/21 14:09:44;;;;;;;;;;;24.30;68.00;;;;;;5047987;27;84743;-39
2022/08/21 14:12:24;;;;;;;;;;;24.40;68.40;;;;;;5050648;28;82852;-39
2022/08/21 14:14:51;;;;;;;;;;;24.30;68.50;;;;;;5048075;28;82468;-38
2022/08/21 14:17:28;;;;;;;;;;;24.20;67.70;;;;;;5047531;28;83157;-40
2022/08/21 14:19:53;;;;;;;;;;;24.00;66.90;;;;;;5047649;28;82542;-46
2022/08/21 14:22:43;;;;;;;;;;;24.00;67.40;;;;;;5047226;28;82592;-40
2022/08/21 14:25:11;;;;;;;;;;;24.00;67.10;;;;;;5042107;27;83487;-38